sensor_id;sensor_type;location;lat;lon;timestamp;temperature;humidity
1468;DHT22;727;48.892;9.544;2023-09-18T04:51:28;18.00;99.90
1468;DHT22;727;48.892;9.544;2023-09-18T06:09:46;18.60;99.90
1468;DHT22;727;48.892;9.544;2023-09-18T06:12:13;19.20;99.90
1468;DHT22;727;48.892;9.544;2023-09-18T06:14:42;20.00;99.90
1468;DHT22;727;48.892;9.544;2023-09-18T06:17:16;20.20;99.90
1468;DHT22;727;48.892;9.544;2023-09-18T06:20:00;20.10;99.90
1468;DHT22;727;48.892;9.544;2023-09-18T06:22:47;19.80;99.90
1468;DHT22;727;48.892;9.544;2023-09-18T06:38:03;19.40;99.90
1468;DHT22;727;48.892;9.544;2023-09-18T07:11:53;20.00;99.90
1468;DHT22;727;48.892;9.544;2023-09-18T07:14:23;20.00;99.90
1468;DHT22;727;48.892;9.544;2023-09-18T07:16:50;20.00;99.90
1468;DHT22;727;48.892;9.544;2023-09-18T07:19:29;20.00;99.90
1468;DHT22;727;48.892;9.544;2023-09-18T07:21:56;20.00;99.90
1468;DHT22;727;48.892;9.544;2023-09-18T07:24:40;20.10;99.90
1468;DHT22;727;48.892;9.544;2023-09-18T07:27:19;20.20;99.90
1468;DHT22;727;48.892;9.544;2023-09-18T07:32:29;20.40;99.90
1468;DHT22;727;48.892;9.544;2023-09-18T07:35:12;20.50;99.90
1468;DHT22;727;48.892;9.544;2023-09-18T07:37:45;20.50;99.90
1468;DHT22;727;48.892;9.544;2023-09-18T07:43:10;20.80;99.90
1468;DHT22;727;48.892;9.544;2023-09-18T07:53:19;21.20;99.90
1468;DHT22;727;48.892;9.544;2023-09-18T08:08:49;22.10;99.90
1468;DHT22;727;48.892;9.544;2023-09-18T08:11:16;22.20;99.90
1468;DHT22;727;48.892;9.544;2023-09-18T08:13:44;22.40;99.90
1468;DHT22;727;48.892;9.544;2023-09-18T08:16:10;22.60;99.90
1468;DHT22;727;48.892;9.544;2023-09-18T08:18:40;22.80;99.90
1468;DHT22;727;48.892;9.544;2023-09-18T08:21:08;23.00;99.90
1468;DHT22;727;48.892;9.544;2023-09-18T08:23:35;23.20;99.90
1468;DHT22;727;48.892;9.544;2023-09-18T08:26:05;23.50;99.90
1468;DHT22;727;48.892;9.544;2023-09-18T08:28:32;23.70;99.90
1468;DHT22;727;48.892;9.544;2023-09-18T08:31:01;23.80;99.90
1468;DHT22;727;48.892;9.544;2023-09-18T08:33:28;24.10;99.90
1468;DHT22;727;48.892;9.544;2023-09-18T08:35:54;24.40;99.90
1468;DHT22;727;48.892;9.544;2023-09-18T08:38:21;24.50;99.80
1468;DHT22;727;48.892;9.544;2023-09-18T08:40:48;24.50;98.80
1468;DHT22;727;48.892;9.544;2023-09-18T08:43:17;24.30;97.70
1468;DHT22;727;48.892;9.544;2023-09-18T08:45:47;24.10;97.70
1468;DHT22;727;48.892;9.544;2023-09-18T08:48:17;23.80;98.10
1468;DHT22;727;48.892;9.544;2023-09-18T08:50:45;23.50;98.10
1468;DHT22;727;48.892;9.544;2023-09-18T08:53:12;23.20;98.20
1468;DHT22;727;48.892;9.544;2023-09-18T08:55:43;23.10;98.60
1468;DHT22;727;48.892;9.544;2023-09-18T08:58:10;23.00;98.80
1468;DHT22;727;48.892;9.544;2023-09-18T09:00:40;22.90;99.00
1468;DHT22;727;48.892;9.544;2023-09-18T09:03:07;23.00;99.00
1468;DHT22;727;48.892;9.544;2023-09-18T09:05:35;22.90;99.10
1468;DHT22;727;48.892;9.544;2023-09-18T09:08:02;22.80;99.20
1468;DHT22;727;48.892;9.544;2023-09-18T09:10:29;22.60;99.20
1468;DHT22;727;48.892;9.544;2023-09-18T09:12:57;22.30;99.20
1468;DHT22;727;48.892;9.544;2023-09-18T09:15:25;22.10;99.50
1468;DHT22;727;48.892;9.544;2023-09-18T09:18:02;21.90;99.90
1468;DHT22;727;48.892;9.544;2023-09-18T09:20:31;21.70;99.90
1468;DHT22;727;48.892;9.544;2023-09-18T09:23:02;21.60;99.90
1468;DHT22;727;48.892;9.544;2023-09-18T09:25:30;21.60;99.90
1468;DHT22;727;48.892;9.544;2023-09-18T09:27:59;21.60;99.90
1468;DHT22;727;48.892;9.544;2023-09-18T09:30:27;21.50;99.90
1468;DHT22;727;48.892;9.544;2023-09-18T09:32:58;21.40;99.90
1468;DHT22;727;48.892;9.544;2023-09-18T09:35:29;21.40;99.90
1468;DHT22;727;48.892;9.544;2023-09-18T09:40:53;21.10;99.90
1468;DHT22;727;48.892;9.544;2023-09-18T09:43:22;21.00;99.90
1468;DHT22;727;48.892;9.544;2023-09-18T09:45:49;20.80;99.90
1468;DHT22;727;48.892;9.544;2023-09-18T09:48:24;20.80;99.90
1468;DHT22;727;48.892;9.544;2023-09-18T09:50:52;20.80;99.90
1468;DHT22;727;48.892;9.544;2023-09-18T09:53:43;20.80;99.90
1468;DHT22;727;48.892;9.544;2023-09-18T09:56:12;20.70;99.90
1468;DHT22;727;48.892;9.544;2023-09-18T09:58:40;20.70;99.90
1468;DHT22;727;48.892;9.544;2023-09-18T10:01:12;20.60;99.90
1468;DHT22;727;48.892;9.544;2023-09-18T10:03:44;20.60;99.90
1468;DHT22;727;48.892;9.544;2023-09-18T10:06:14;20.60;99.90
1468;DHT22;727;48.892;9.544;2023-09-18T10:08:41;20.70;99.90
1468;DHT22;727;48.892;9.544;2023-09-18T10:11:11;20.70;99.90
1468;DHT22;727;48.892;9.544;2023-09-18T10:13:46;20.70;99.90
1468;DHT22;727;48.892;9.544;2023-09-18T10:16:17;20.70;99.90
1468;DHT22;727;48.892;9.544;2023-09-18T10:18:55;20.80;99.90
1468;DHT22;727;48.892;9.544;2023-09-18T10:21:27;20.80;99.90
1468;DHT22;727;48.892;9.544;2023-09-18T10:24:04;20.80;99.90
1468;DHT22;727;48.892;9.544;2023-09-18T10:26:35;20.80;99.90
1468;DHT22;727;48.892;9.544;2023-09-18T10:29:09;20.90;99.90
1468;DHT22;727;48.892;9.544;2023-09-18T10:31:39;20.80;99.90
1468;DHT22;727;48.892;9.544;2023-09-18T10:34:09;20.80;99.90
1468;DHT22;727;48.892;9.544;2023-09-18T10:36:37;20.80;99.90
1468;DHT22;727;48.892;9.544;2023-09-18T10:39:06;20.80;99.90
1468;DHT22;727;48.892;9.544;2023-09-18T10:41:37;20.80;99.90
1468;DHT22;727;48.892;9.544;2023-09-18T10:44:07;20.60;99.90
1468;DHT22;727;48.892;9.544;2023-09-18T10:46:34;20.60;99.90
1468;DHT22;727;48.892;9.544;2023-09-18T10:49:01;20.50;99.90
1468;DHT22;727;48.892;9.544;2023-09-18T10:51:32;20.50;99.90
1468;DHT22;727;48.892;9.544;2023-09-18T10:54:03;20.50;99.90
1468;DHT22;727;48.892;9.544;2023-09-18T10:56:32;20.40;99.90
1468;DHT22;727;48.892;9.544;2023-09-18T10:59:00;20.40;99.90
1468;DHT22;727;48.892;9.544;2023-09-18T11:01:27;20.30;99.90
1468;DHT22;727;48.892;9.544;2023-09-18T11:03:58;20.30;99.90
1468;DHT22;727;48.892;9.544;2023-09-18T11:06:27;20.30;99.90
1468;DHT22;727;48.892;9.544;2023-09-18T11:09:02;20.30;99.90
1468;DHT22;727;48.892;9.544;2023-09-18T11:11:30;20.20;99.90
1468;DHT22;727;48.892;9.544;2023-09-18T11:14:01;20.10;99.90
1468;DHT22;727;48.892;9.544;2023-09-18T11:16:36;20.10;99.90
1468;DHT22;727;48.892;9.544;2023-09-18T11:19:12;20.10;99.90
1468;DHT22;727;48.892;9.544;2023-09-18T11:21:43;20.10;99.90
1468;DHT22;727;48.892;9.544;2023-09-18T11:24:18;20.10;99.90
1468;DHT22;727;48.892;9.544;2023-09-18T11:26:47;20.10;99.90
1468;DHT22;727;48.892;9.544;2023-09-18T11:29:16;20.00;99.90
1468;DHT22;727;48.892;9.544;2023-09-18T11:31:46;19.90;99.90
1468;DHT22;727;48.892;9.544;2023-09-18T11:34:15;19.80;99.90
1468;DHT22;727;48.892;9.544;2023-09-18T11:36:45;19.80;99.90
1468;DHT22;727;48.892;9.544;2023-09-18T11:39:13;19.80;99.90
1468;DHT22;727;48.892;9.544;2023-09-18T11:42:09;19.70;99.90
1468;DHT22;727;48.892;9.544;2023-09-18T11:44:36;19.50;99.90
1468;DHT22;727;48.892;9.544;2023-09-18T11:47:07;19.60;99.90
1468;DHT22;727;48.892;9.544;2023-09-18T11:49:38;19.60;99.90
1468;DHT22;727;48.892;9.544;2023-09-18T11:52:08;19.60;99.90
1468;DHT22;727;48.892;9.544;2023-09-18T11:54:35;19.70;99.90
1468;DHT22;727;48.892;9.544;2023-09-18T11:57:03;19.70;99.90
1468;DHT22;727;48.892;9.544;2023-09-18T11:59:37;19.80;99.90
1468;DHT22;727;48.892;9.544;2023-09-18T12:02:04;19.90;99.90
1468;DHT22;727;48.892;9.544;2023-09-18T12:04:34;20.00;99.90
1468;DHT22;727;48.892;9.544;2023-09-18T12:07:02;20.00;99.90
1468;DHT22;727;48.892;9.544;2023-09-18T12:09:30;20.00;99.90
1468;DHT22;727;48.892;9.544;2023-09-18T12:12:11;20.00;99.90
1468;DHT22;727;48.892;9.544;2023-09-18T12:14:48;20.10;99.90
1468;DHT22;727;48.892;9.544;2023-09-18T12:30:39;20.40;99.90
1468;DHT22;727;48.892;9.544;2023-09-18T12:33:05;20.40;99.90
1468;DHT22;727;48.892;9.544;2023-09-18T12:35:32;20.30;99.90
1468;DHT22;727;48.892;9.544;2023-09-18T12:37:59;20.40;99.90
1468;DHT22;727;48.892;9.544;2023-09-18T12:40:32;20.40;99.90
1468;DHT22;727;48.892;9.544;2023-09-18T12:43:00;20.50;99.90
1468;DHT22;727;48.892;9.544;2023-09-18T12:45:27;20.50;99.90
1468;DHT22;727;48.892;9.544;2023-09-18T12:47:58;20.50;99.90
1468;DHT22;727;48.892;9.544;2023-09-18T12:50:26;20.40;99.90
1468;DHT22;727;48.892;9.544;2023-09-18T12:52:53;20.50;99.90
1468;DHT22;727;48.892;9.544;2023-09-18T12:55:23;20.40;99.90
1468;DHT22;727;48.892;9.544;2023-09-18T12:57:52;20.50;99.90
1468;DHT22;727;48.892;9.544;2023-09-18T13:00:22;20.60;99.90
1468;DHT22;727;48.892;9.544;2023-09-18T13:02:52;20.70;99.90
1468;DHT22;727;48.892;9.544;2023-09-18T13:05:22;20.90;99.90
1468;DHT22;727;48.892;9.544;2023-09-18T13:07:52;21.10;99.90
1468;DHT22;727;48.892;9.544;2023-09-18T13:10:21;21.40;99.90
1468;DHT22;727;48.892;9.544;2023-09-18T13:12:49;21.50;99.90
1468;DHT22;727;48.892;9.544;2023-09-18T13:15:25;21.60;99.90
1468;DHT22;727;48.892;9.544;2023-09-18T13:17:53;21.60;99.90
1468;DHT22;727;48.892;9.544;2023-09-18T13:20:24;21.80;99.90
1468;DHT22;727;48.892;9.544;2023-09-18T13:22:54;22.00;99.90
1468;DHT22;727;48.892;9.544;2023-09-18T13:25:22;22.40;99.90
1468;DHT22;727;48.892;9.544;2023-09-18T13:27:49;22.90;99.90
1468;DHT22;727;48.892;9.544;2023-09-18T13:30:16;23.20;99.90
1468;DHT22;727;48.892;9.544;2023-09-18T13:32:44;23.20;99.90
1468;DHT22;727;48.892;9.544;2023-09-18T13:35:11;23.10;99.90
1468;DHT22;727;48.892;9.544;2023-09-18T13:37:40;23.10;99.90
1468;DHT22;727;48.892;9.544;2023-09-18T13:40:08;23.40;99.90
1468;DHT22;727;48.892;9.544;2023-09-18T13:42:35;23.40;99.90
1468;DHT22;727;48.892;9.544;2023-09-18T13:45:04;23.80;99.90
1468;DHT22;727;48.892;9.544;2023-09-18T13:47:32;24.20;99.90
1468;DHT22;727;48.892;9.544;2023-09-18T13:50:00;24.50;98.80
1468;DHT22;727;48.892;9.544;2023-09-18T13:52:28;24.80;98.40
1468;DHT22;727;48.892;9.544;2023-09-18T13:54:56;24.80;97.30
1468;DHT22;727;48.892;9.544;2023-09-18T13:57:24;24.90;97.20
1468;DHT22;727;48.892;9.544;2023-09-18T13:59:52;24.90;96.80
1468;DHT22;727;48.892;9.544;2023-09-18T14:02:19;24.80;96.80
1468;DHT22;727;48.892;9.544;2023-09-18T14:04:46;24.70;96.90
1468;DHT22;727;48.892;9.544;2023-09-18T14:07:13;24.60;97.00
1468;DHT22;727;48.892;9.544;2023-09-18T14:09:40;24.60;97.00
1468;DHT22;727;48.892;9.544;2023-09-18T14:12:11;24.50;96.80
1468;DHT22;727;48.892;9.544;2023-09-18T14:14:38;24.30;97.10
1468;DHT22;727;48.892;9.544;2023-09-18T14:17:05;24.00;97.40
1468;DHT22;727;48.892;9.544;2023-09-18T14:19:32;23.80;98.10
1468;DHT22;727;48.892;9.544;2023-09-18T14:21:59;23.60;98.00
1468;DHT22;727;48.892;9.544;2023-09-18T14:24:29;23.50;98.60
1468;DHT22;727;48.892;9.544;2023-09-18T14:26:58;23.40;99.10
1468;DHT22;727;48.892;9.544;2023-09-18T14:29:27;23.30;98.70
1468;DHT22;727;48.892;9.544;2023-09-18T14:31:55;23.30;99.50
1468;DHT22;727;48.892;9.544;2023-09-18T14:34:32;23.20;99.60
1468;DHT22;727;48.892;9.544;2023-09-18T14:37:02;23.10;99.80
1468;DHT22;727;48.892;9.544;2023-09-18T14:39:30;23.10;99.80
1468;DHT22;727;48.892;9.544;2023-09-18T14:41:58;23.20;99.50
1468;DHT22;727;48.892;9.544;2023-09-18T14:44:36;23.30;99.10
1468;DHT22;727;48.892;9.544;2023-09-18T14:47:09;23.30;99.10
1468;DHT22;727;48.892;9.544;2023-09-18T14:49:36;23.20;98.90
1468;DHT22;727;48.892;9.544;2023-09-18T14:52:05;23.20;99.10
1468;DHT22;727;48.892;9.544;2023-09-18T14:54:35;23.20;99.40
1468;DHT22;727;48.892;9.544;2023-09-18T14:57:02;23.10;99.70
1468;DHT22;727;48.892;9.544;2023-09-18T14:59:29;23.10;99.90
1468;DHT22;727;48.892;9.544;2023-09-18T15:01:58;23.10;99.60
1468;DHT22;727;48.892;9.544;2023-09-18T15:04:25;23.00;99.80
1468;DHT22;727;48.892;9.544;2023-09-18T15:06:52;23.10;99.90
1468;DHT22;727;48.892;9.544;2023-09-18T15:09:21;23.20;99.80
1468;DHT22;727;48.892;9.544;2023-09-18T15:11:48;23.30;99.90
1468;DHT22;727;48.892;9.544;2023-09-18T15:14:15;23.40;99.70
1468;DHT22;727;48.892;9.544;2023-09-18T15:16:42;23.40;99.30
1468;DHT22;727;48.892;9.544;2023-09-18T15:19:10;23.40;99.00
1468;DHT22;727;48.892;9.544;2023-09-18T15:21:39;23.40;98.90
1468;DHT22;727;48.892;9.544;2023-09-18T15:24:07;23.30;98.70
1468;DHT22;727;48.892;9.544;2023-09-18T15:26:33;23.30;98.90
1468;DHT22;727;48.892;9.544;2023-09-18T15:29:00;23.30;99.00
1468;DHT22;727;48.892;9.544;2023-09-18T15:31:28;23.20;98.50
1468;DHT22;727;48.892;9.544;2023-09-18T15:33:55;23.20;98.90
1468;DHT22;727;48.892;9.544;2023-09-18T15:36:23;23.10;98.70
1468;DHT22;727;48.892;9.544;2023-09-18T15:38:50;23.10;98.70
1468;DHT22;727;48.892;9.544;2023-09-18T15:41:17;23.00;98.80
1468;DHT22;727;48.892;9.544;2023-09-18T15:43:44;22.80;98.90
1468;DHT22;727;48.892;9.544;2023-09-18T15:46:11;22.70;98.90
1468;DHT22;727;48.892;9.544;2023-09-18T15:48:39;22.60;99.10
1468;DHT22;727;48.892;9.544;2023-09-18T15:51:06;22.70;99.00
1468;DHT22;727;48.892;9.544;2023-09-18T15:53:34;22.70;99.10
1468;DHT22;727;48.892;9.544;2023-09-18T15:56:01;22.70;99.10
1468;DHT22;727;48.892;9.544;2023-09-18T15:58:28;22.50;99.00
1468;DHT22;727;48.892;9.544;2023-09-18T16:00:55;22.40;99.30
1468;DHT22;727;48.892;9.544;2023-09-18T16:03:23;22.20;99.60
1468;DHT22;727;48.892;9.544;2023-09-18T16:05:51;22.00;99.90
1468;DHT22;727;48.892;9.544;2023-09-18T16:08:19;22.00;99.90
1468;DHT22;727;48.892;9.544;2023-09-18T16:10:47;22.00;99.90
1468;DHT22;727;48.892;9.544;2023-09-18T16:13:16;22.00;99.90
1468;DHT22;727;48.892;9.544;2023-09-18T16:15:43;21.90;99.90
1468;DHT22;727;48.892;9.544;2023-09-18T16:18:11;21.90;99.90
1468;DHT22;727;48.892;9.544;2023-09-18T16:20:38;21.90;99.90
1468;DHT22;727;48.892;9.544;2023-09-18T16:23:05;21.80;99.90
1468;DHT22;727;48.892;9.544;2023-09-18T16:25:32;21.80;99.90
1468;DHT22;727;48.892;9.544;2023-09-18T16:28:01;21.80;99.90
1468;DHT22;727;48.892;9.544;2023-09-18T16:30:30;21.70;99.90
1468;DHT22;727;48.892;9.544;2023-09-18T16:32:57;21.80;99.90
1468;DHT22;727;48.892;9.544;2023-09-18T16:35:24;21.70;99.90
1468;DHT22;727;48.892;9.544;2023-09-18T16:37:50;21.60;99.90
1468;DHT22;727;48.892;9.544;2023-09-18T16:40:18;21.50;99.90
1468;DHT22;727;48.892;9.544;2023-09-18T16:42:45;21.40;99.90
1468;DHT22;727;48.892;9.544;2023-09-18T16:45:14;21.30;99.90
1468;DHT22;727;48.892;9.544;2023-09-18T16:47:41;21.30;99.90
1468;DHT22;727;48.892;9.544;2023-09-18T16:50:09;21.30;99.90
1468;DHT22;727;48.892;9.544;2023-09-18T16:52:36;21.20;99.90
1468;DHT22;727;48.892;9.544;2023-09-18T16:55:05;21.10;99.90
1468;DHT22;727;48.892;9.544;2023-09-18T16:57:32;21.10;99.90
1468;DHT22;727;48.892;9.544;2023-09-18T17:00:00;21.00;99.90
1468;DHT22;727;48.892;9.544;2023-09-18T17:02:28;20.90;99.90
1468;DHT22;727;48.892;9.544;2023-09-18T17:04:55;20.80;99.90
1468;DHT22;727;48.892;9.544;2023-09-18T17:07:22;20.70;99.90
1468;DHT22;727;48.892;9.544;2023-09-18T17:09:49;20.60;99.90
1468;DHT22;727;48.892;9.544;2023-09-18T17:12:15;20.50;99.90
1468;DHT22;727;48.892;9.544;2023-09-18T17:14:44;20.40;99.90
1468;DHT22;727;48.892;9.544;2023-09-18T17:17:11;20.30;99.90
1468;DHT22;727;48.892;9.544;2023-09-18T17:19:42;20.10;99.90
1468;DHT22;727;48.892;9.544;2023-09-18T17:22:12;20.00;99.90
1468;DHT22;727;48.892;9.544;2023-09-18T17:24:39;19.90;99.90
1468;DHT22;727;48.892;9.544;2023-09-18T17:27:08;19.70;99.90
1468;DHT22;727;48.892;9.544;2023-09-18T17:29:35;19.50;99.90
1468;DHT22;727;48.892;9.544;2023-09-18T17:32:03;19.40;99.90
1468;DHT22;727;48.892;9.544;2023-09-18T17:34:30;19.20;99.90
1468;DHT22;727;48.892;9.544;2023-09-18T17:36:59;19.00;99.90
1468;DHT22;727;48.892;9.544;2023-09-18T17:39:25;18.80;99.90
1468;DHT22;727;48.892;9.544;2023-09-18T17:41:53;18.70;99.90
1468;DHT22;727;48.892;9.544;2023-09-18T17:44:21;18.50;99.90
1468;DHT22;727;48.892;9.544;2023-09-18T17:46:51;18.40;99.90
1468;DHT22;727;48.892;9.544;2023-09-18T17:49:19;18.30;99.90
1468;DHT22;727;48.892;9.544;2023-09-18T17:51:47;18.30;99.90
1468;DHT22;727;48.892;9.544;2023-09-18T17:54:16;18.20;99.90
1468;DHT22;727;48.892;9.544;2023-09-18T17:56:47;18.10;99.90
1468;DHT22;727;48.892;9.544;2023-09-18T17:59:16;18.00;99.90
1468;DHT22;727;48.892;9.544;2023-09-18T18:01:50;17.90;99.90
1468;DHT22;727;48.892;9.544;2023-09-18T18:04:20;17.90;99.90
1468;DHT22;727;48.892;9.544;2023-09-18T18:06:48;17.80;99.90
1468;DHT22;727;48.892;9.544;2023-09-18T18:09:20;17.80;99.90
1468;DHT22;727;48.892;9.544;2023-09-18T18:11:48;17.80;99.90
1468;DHT22;727;48.892;9.544;2023-09-18T18:14:17;17.70;99.90
1468;DHT22;727;48.892;9.544;2023-09-18T18:16:47;17.70;99.90
1468;DHT22;727;48.892;9.544;2023-09-18T18:19:17;17.60;99.90
1468;DHT22;727;48.892;9.544;2023-09-18T18:21:47;17.60;99.90
1468;DHT22;727;48.892;9.544;2023-09-18T18:24:16;17.50;99.90
1468;DHT22;727;48.892;9.544;2023-09-18T18:26:46;17.50;99.90
1468;DHT22;727;48.892;9.544;2023-09-18T18:29:13;17.40;99.90
1468;DHT22;727;48.892;9.544;2023-09-18T18:31:55;17.40;99.90
1468;DHT22;727;48.892;9.544;2023-09-18T18:34:23;17.30;99.90
1468;DHT22;727;48.892;9.544;2023-09-18T18:36:51;17.30;99.90
1468;DHT22;727;48.892;9.544;2023-09-18T18:39:20;17.20;99.90
1468;DHT22;727;48.892;9.544;2023-09-18T18:42:02;17.20;99.90
1468;DHT22;727;48.892;9.544;2023-09-18T18:44:29;17.10;99.90
1468;DHT22;727;48.892;9.544;2023-09-18T18:46:56;17.10;99.90
1468;DHT22;727;48.892;9.544;2023-09-18T18:49:26;17.10;99.90
1468;DHT22;727;48.892;9.544;2023-09-18T18:51:52;17.00;99.90
1468;DHT22;727;48.892;9.544;2023-09-18T18:54:19;17.10;99.90
1468;DHT22;727;48.892;9.544;2023-09-18T18:56:46;17.10;99.90
1468;DHT22;727;48.892;9.544;2023-09-18T18:59:20;17.10;99.90
1468;DHT22;727;48.892;9.544;2023-09-18T19:01:47;17.10;99.90
1468;DHT22;727;48.892;9.544;2023-09-18T19:04:15;17.10;99.90
1468;DHT22;727;48.892;9.544;2023-09-18T19:06:42;17.10;99.90
1468;DHT22;727;48.892;9.544;2023-09-18T19:09:15;17.20;99.90
1468;DHT22;727;48.892;9.544;2023-09-18T19:11:43;17.20;99.90
1468;DHT22;727;48.892;9.544;2023-09-18T19:14:11;17.20;99.90
1468;DHT22;727;48.892;9.544;2023-09-18T19:16:39;17.30;99.90
1468;DHT22;727;48.892;9.544;2023-09-18T19:19:08;17.30;99.90
1468;DHT22;727;48.892;9.544;2023-09-18T19:21:42;17.30;99.90
1468;DHT22;727;48.892;9.544;2023-09-18T19:24:14;17.20;99.90
1468;DHT22;727;48.892;9.544;2023-09-18T19:26:40;17.20;99.90
1468;DHT22;727;48.892;9.544;2023-09-18T19:29:11;17.30;99.90
1468;DHT22;727;48.892;9.544;2023-09-18T19:31:43;17.30;99.90
1468;DHT22;727;48.892;9.544;2023-09-18T19:34:14;17.30;99.90
1468;DHT22;727;48.892;9.544;2023-09-18T19:36:42;17.30;99.90
1468;DHT22;727;48.892;9.544;2023-09-18T19:39:13;17.20;99.90
1468;DHT22;727;48.892;9.544;2023-09-18T19:41:40;17.30;99.90
1468;DHT22;727;48.892;9.544;2023-09-18T19:44:07;17.30;99.90
1468;DHT22;727;48.892;9.544;2023-09-18T19:46:34;17.30;99.90
1468;DHT22;727;48.892;9.544;2023-09-18T19:49:02;17.30;99.90
1468;DHT22;727;48.892;9.544;2023-09-18T19:51:32;17.20;99.90
1468;DHT22;727;48.892;9.544;2023-09-18T19:53:59;17.20;99.90
1468;DHT22;727;48.892;9.544;2023-09-18T19:56:28;17.20;99.90
1468;DHT22;727;48.892;9.544;2023-09-18T19:58:56;17.20;99.90
1468;DHT22;727;48.892;9.544;2023-09-18T20:01:23;17.10;99.90
1468;DHT22;727;48.892;9.544;2023-09-18T20:03:51;17.10;99.90
1468;DHT22;727;48.892;9.544;2023-09-18T20:06:21;17.20;99.90
1468;DHT22;727;48.892;9.544;2023-09-18T20:08:48;17.10;99.90
1468;DHT22;727;48.892;9.544;2023-09-18T20:11:17;17.20;99.90
1468;DHT22;727;48.892;9.544;2023-09-18T20:13:45;17.20;99.90
1468;DHT22;727;48.892;9.544;2023-09-18T20:16:13;17.30;99.90
1468;DHT22;727;48.892;9.544;2023-09-18T20:18:40;17.30;99.90
1468;DHT22;727;48.892;9.544;2023-09-18T20:21:08;17.30;99.90
1468;DHT22;727;48.892;9.544;2023-09-18T20:23:38;17.30;99.90
1468;DHT22;727;48.892;9.544;2023-09-18T20:26:06;17.30;99.90
1468;DHT22;727;48.892;9.544;2023-09-18T20:28:34;17.30;99.90
1468;DHT22;727;48.892;9.544;2023-09-18T20:31:01;17.20;99.90
1468;DHT22;727;48.892;9.544;2023-09-18T20:33:28;17.30;99.90
1468;DHT22;727;48.892;9.544;2023-09-18T20:41:24;17.20;99.90
1468;DHT22;727;48.892;9.544;2023-09-18T20:43:51;17.20;99.90
1468;DHT22;727;48.892;9.544;2023-09-18T20:46:18;17.20;99.90
1468;DHT22;727;48.892;9.544;2023-09-18T20:48:45;17.10;99.90
1468;DHT22;727;48.892;9.544;2023-09-18T20:51:12;17.20;99.90
1468;DHT22;727;48.892;9.544;2023-09-18T20:53:38;17.10;99.90
1468;DHT22;727;48.892;9.544;2023-09-18T20:56:06;17.10;99.90
1468;DHT22;727;48.892;9.544;2023-09-18T20:58:34;17.10;99.90
1468;DHT22;727;48.892;9.544;2023-09-18T21:01:01;17.10;99.90
1468;DHT22;727;48.892;9.544;2023-09-18T21:03:31;17.10;99.90
1468;DHT22;727;48.892;9.544;2023-09-18T21:05:58;17.10;99.90
1468;DHT22;727;48.892;9.544;2023-09-18T21:08:25;17.00;99.90
1468;DHT22;727;48.892;9.544;2023-09-18T21:10:52;17.00;99.90
1468;DHT22;727;48.892;9.544;2023-09-18T21:13:20;16.90;99.90
1468;DHT22;727;48.892;9.544;2023-09-18T21:15:49;16.80;99.90
1468;DHT22;727;48.892;9.544;2023-09-18T21:18:16;16.80;99.90
1468;DHT22;727;48.892;9.544;2023-09-18T21:20:42;16.80;99.90
1468;DHT22;727;48.892;9.544;2023-09-18T21:23:09;16.70;99.90
1468;DHT22;727;48.892;9.544;2023-09-18T21:26:08;16.70;99.90
1468;DHT22;727;48.892;9.544;2023-09-18T21:28:35;16.60;99.90
1468;DHT22;727;48.892;9.544;2023-09-18T21:31:11;16.60;99.90
1468;DHT22;727;48.892;9.544;2023-09-18T21:36:27;16.50;99.90
1468;DHT22;727;48.892;9.544;2023-09-18T21:38:57;16.50;99.90
1468;DHT22;727;48.892;9.544;2023-09-18T21:41:39;16.40;99.90
1468;DHT22;727;48.892;9.544;2023-09-18T21:44:07;16.40;99.90
1468;DHT22;727;48.892;9.544;2023-09-18T21:46:38;16.40;99.90
1468;DHT22;727;48.892;9.544;2023-09-18T21:49:05;16.30;99.90
1468;DHT22;727;48.892;9.544;2023-09-18T21:51:32;16.30;99.90
1468;DHT22;727;48.892;9.544;2023-09-18T21:54:04;16.30;99.90
1468;DHT22;727;48.892;9.544;2023-09-18T21:56:31;16.30;99.90
1468;DHT22;727;48.892;9.544;2023-09-18T21:58:58;16.40;99.90
1468;DHT22;727;48.892;9.544;2023-09-18T22:01:25;16.40;99.90
1468;DHT22;727;48.892;9.544;2023-09-18T22:03:54;16.40;99.90
1468;DHT22;727;48.892;9.544;2023-09-18T22:06:21;16.40;99.90
1468;DHT22;727;48.892;9.544;2023-09-18T22:08:49;16.40;99.90
1468;DHT22;727;48.892;9.544;2023-09-18T22:11:16;16.40;99.90
1468;DHT22;727;48.892;9.544;2023-09-18T22:13:43;16.40;99.90
1468;DHT22;727;48.892;9.544;2023-09-18T22:16:10;16.40;99.90
1468;DHT22;727;48.892;9.544;2023-09-18T22:18:37;16.30;99.90
1468;DHT22;727;48.892;9.544;2023-09-18T22:21:06;16.30;99.90
1468;DHT22;727;48.892;9.544;2023-09-18T22:23:34;16.30;99.90
1468;DHT22;727;48.892;9.544;2023-09-18T22:26:01;16.30;99.90
1468;DHT22;727;48.892;9.544;2023-09-18T22:28:28;16.30;99.90
1468;DHT22;727;48.892;9.544;2023-09-18T22:30:56;16.30;99.90
1468;DHT22;727;48.892;9.544;2023-09-18T22:33:23;16.30;99.90
1468;DHT22;727;48.892;9.544;2023-09-18T22:35:50;16.30;99.90
1468;DHT22;727;48.892;9.544;2023-09-18T22:38:25;16.30;99.90
1468;DHT22;727;48.892;9.544;2023-09-18T22:55:12;16.30;99.90
1468;DHT22;727;48.892;9.544;2023-09-18T22:57:44;16.30;99.90
1468;DHT22;727;48.892;9.544;2023-09-18T23:00:13;16.30;99.90
1468;DHT22;727;48.892;9.544;2023-09-18T23:02:41;16.30;99.90
1468;DHT22;727;48.892;9.544;2023-09-18T23:05:13;16.30;99.90
1468;DHT22;727;48.892;9.544;2023-09-18T23:07:40;16.40;99.90
1468;DHT22;727;48.892;9.544;2023-09-18T23:10:10;16.40;99.90
1468;DHT22;727;48.892;9.544;2023-09-18T23:12:39;16.40;99.90
1468;DHT22;727;48.892;9.544;2023-09-18T23:15:08;16.40;99.90
1468;DHT22;727;48.892;9.544;2023-09-18T23:17:37;16.40;99.90
1468;DHT22;727;48.892;9.544;2023-09-18T23:37:23;16.40;99.90
1468;DHT22;727;48.892;9.544;2023-09-18T23:39:50;16.50;99.90
1468;DHT22;727;48.892;9.544;2023-09-18T23:42:19;16.40;99.90
1468;DHT22;727;48.892;9.544;2023-09-18T23:44:46;16.40;99.90
1468;DHT22;727;48.892;9.544;2023-09-18T23:47:14;16.50;99.90
1468;DHT22;727;48.892;9.544;2023-09-18T23:49:45;16.50;99.90
1468;DHT22;727;48.892;9.544;2023-09-18T23:52:12;16.50;99.90
1468;DHT22;727;48.892;9.544;2023-09-18T23:54:41;16.50;99.90
1468;DHT22;727;48.892;9.544;2023-09-18T23:57:09;16.60;99.90
1468;DHT22;727;48.892;9.544;2023-09-18T23:59:36;16.50;99.90
